Hulls Cove, ME (04644)

7:14 AM EST on February 11, 2016 (GMT -0500)
College of the Atlantic | | Change Station
CLOSE
Current Station
Personal Weather Station
Location: Bar Harbor, ME
Elevation: 52 ft
Nearby Weather Stations

Elev 52 ft 44.39 °N, 68.22 °W | Updated 53 seconds ago

Overcast
Overcast
25.3 °F
Feels Like 25 °F
N
0.0
Wind Variable Wind from WSW
Gusts 6.0 mph

Today
High -- | Low -- °F
--% Chance of Precip.
Yesterday
High -- | Low -- °F
Precip. -- in
Pressure 29.59 in
Visibility 10.0 miles
Clouds Overcast 1600 ft
Windchill 25 °F
Dew Point 24 °F
Humidity 90%
Rainfall 0.00 in
Snow Depth Not available.
6:39 AM 4:55 PM
Waxing Crescent, 11% visible
METAR KBHB 111155Z 34006KT 10SM OVC016 M04/M06 A2959 RMK AO1 70002 11020 21040 52017
Pressure 29.59 in
Visibility 10.0 miles
Clouds Overcast 1600 ft
Windchill 25 °F
Dew Point 24 °F
Humidity 90%
Rainfall 0.00 in
Snow Depth Not available.
6:39 AM 4:55 PM
Waxing Crescent, 11% visible
METAR KBHB 111155Z 34006KT 10SM OVC016 M04/M06 A2959 RMK AO1 70002 11020 21040 52017

10-Day Weather Forecast

Almanac

Astronomy

Feb. 11, 2016 Rise Set
Actual Time
Civil Twilight
Nautical Twilight
Astronomical Twilight
Moon
Length of Visible Light
Length of Day
Tomorrow will be .
, % of the Moon is Illuminated

Today's Extremes

State Highs State Lows

Community

WunderPhotos

Upload Photos

1,892,035 photos uploaded!

WunderBlog® & News

Nearby

Air Quality

  Air Quality AQ Index Pollutant
Not available.

Snow Depth

Station Depth Elevation

Earthquake Activity

City Distance Mag. Time & Date
Minimum magnitude displayed is 2.5.

Coastal Water Temperatures

Place Temperature

Stations

Nearby Weather Stations

Station Location Temp. Windchill Dew Point Humidity Wind Precip. Elev Updated Type
                   

Watches & Warnings

There are currently no watches in effect.